sensor_id;sensor_type;location;lat;lon;timestamp;temperature;humidity
78904;DHT22;68291;49.602;8.722;2023-05-10T00:02:44;16.20;99.90
78904;DHT22;68291;49.602;8.722;2023-05-10T00:05:42;16.20;99.90
78904;DHT22;68291;49.602;8.722;2023-05-10T00:08:51;16.10;99.90
78904;DHT22;68291;49.602;8.722;2023-05-10T00:11:46;16.10;99.90
78904;DHT22;68291;49.602;8.722;2023-05-10T00:14:38;16.20;99.90
78904;DHT22;68291;49.602;8.722;2023-05-10T00:17:37;16.20;99.90
78904;DHT22;68291;49.602;8.722;2023-05-10T00:20:27;16.20;99.90
78904;DHT22;68291;49.602;8.722;2023-05-10T00:23:25;16.20;99.90
78904;DHT22;68291;49.602;8.722;2023-05-10T00:26:36;16.20;99.90
78904;DHT22;68291;49.602;8.722;2023-05-10T00:29:49;16.20;99.90
78904;DHT22;68291;49.602;8.722;2023-05-10T00:32:39;16.20;99.90
78904;DHT22;68291;49.602;8.722;2023-05-10T00:35:39;16.20;99.90
78904;DHT22;68291;49.602;8.722;2023-05-10T00:38:30;16.20;99.90
78904;DHT22;68291;49.602;8.722;2023-05-10T00:41:27;16.20;99.90
78904;DHT22;68291;49.602;8.722;2023-05-10T00:44:26;16.20;99.90
78904;DHT22;68291;49.602;8.722;2023-05-10T00:47:30;16.20;99.90
78904;DHT22;68291;49.602;8.722;2023-05-10T00:50:35;16.20;99.90
78904;DHT22;68291;49.602;8.722;2023-05-10T00:53:27;16.20;99.90
78904;DHT22;68291;49.602;8.722;2023-05-10T00:56:17;16.20;99.90
78904;DHT22;68291;49.602;8.722;2023-05-10T00:59:13;16.20;99.90
78904;DHT22;68291;49.602;8.722;2023-05-10T01:02:07;16.20;99.90
78904;DHT22;68291;49.602;8.722;2023-05-10T01:05:00;16.20;99.90
78904;DHT22;68291;49.602;8.722;2023-05-10T01:07:54;16.20;99.90
78904;DHT22;68291;49.602;8.722;2023-05-10T01:10:53;16.20;99.90
78904;DHT22;68291;49.602;8.722;2023-05-10T01:13:47;16.20;99.90
78904;DHT22;68291;49.602;8.722;2023-05-10T01:17:01;16.20;99.90
78904;DHT22;68291;49.602;8.722;2023-05-10T01:20:01;16.20;99.90
78904;DHT22;68291;49.602;8.722;2023-05-10T01:27:03;16.20;99.90
78904;DHT22;68291;49.602;8.722;2023-05-10T01:30:41;16.10;99.90
78904;DHT22;68291;49.602;8.722;2023-05-10T01:33:55;16.10;99.90
78904;DHT22;68291;49.602;8.722;2023-05-10T01:37:08;16.10;99.90
78904;DHT22;68291;49.602;8.722;2023-05-10T01:40:06;16.10;99.90
78904;DHT22;68291;49.602;8.722;2023-05-10T01:43:11;16.10;99.90
78904;DHT22;68291;49.602;8.722;2023-05-10T01:46:20;16.10;99.90
78904;DHT22;68291;49.602;8.722;2023-05-10T01:49:40;16.10;99.90
78904;DHT22;68291;49.602;8.722;2023-05-10T01:52:50;16.20;99.90
78904;DHT22;68291;49.602;8.722;2023-05-10T01:55:48;16.20;99.90
78904;DHT22;68291;49.602;8.722;2023-05-10T01:58:45;16.20;99.90
78904;DHT22;68291;49.602;8.722;2023-05-10T02:01:43;16.20;99.90
78904;DHT22;68291;49.602;8.722;2023-05-10T02:05:03;16.10;99.90
78904;DHT22;68291;49.602;8.722;2023-05-10T02:07:56;16.10;99.90
78904;DHT22;68291;49.602;8.722;2023-05-10T02:10:59;16.10;99.90
78904;DHT22;68291;49.602;8.722;2023-05-10T02:13:51;16.10;99.90
78904;DHT22;68291;49.602;8.722;2023-05-10T02:16:48;16.10;99.90
78904;DHT22;68291;49.602;8.722;2023-05-10T02:20:07;16.10;99.90
78904;DHT22;68291;49.602;8.722;2023-05-10T02:22:59;16.20;99.90
78904;DHT22;68291;49.602;8.722;2023-05-10T02:25:59;16.20;99.90
78904;DHT22;68291;49.602;8.722;2023-05-10T02:29:14;16.20;99.90
78904;DHT22;68291;49.602;8.722;2023-05-10T02:32:13;16.20;99.90
78904;DHT22;68291;49.602;8.722;2023-05-10T02:35:21;16.20;99.90
78904;DHT22;68291;49.602;8.722;2023-05-10T02:38:33;16.20;99.90
78904;DHT22;68291;49.602;8.722;2023-05-10T02:41:42;16.10;99.90
78904;DHT22;68291;49.602;8.722;2023-05-10T02:45:00;16.10;99.90
78904;DHT22;68291;49.602;8.722;2023-05-10T02:47:55;16.10;99.90
78904;DHT22;68291;49.602;8.722;2023-05-10T02:51:06;16.10;99.90
78904;DHT22;68291;49.602;8.722;2023-05-10T02:54:11;16.10;99.90
78904;DHT22;68291;49.602;8.722;2023-05-10T02:57:30;16.10;99.90
78904;DHT22;68291;49.602;8.722;2023-05-10T03:00:25;16.10;99.90
78904;DHT22;68291;49.602;8.722;2023-05-10T03:03:44;16.10;99.90
78904;DHT22;68291;49.602;8.722;2023-05-10T03:06:50;16.10;99.90
78904;DHT22;68291;49.602;8.722;2023-05-10T03:09:49;16.00;99.90
78904;DHT22;68291;49.602;8.722;2023-05-10T03:13:01;16.10;99.90
78904;DHT22;68291;49.602;8.722;2023-05-10T03:16:08;16.10;99.90
78904;DHT22;68291;49.602;8.722;2023-05-10T03:19:17;16.10;99.90
78904;DHT22;68291;49.602;8.722;2023-05-10T03:22:44;16.10;99.90
78904;DHT22;68291;49.602;8.722;2023-05-10T03:25:42;16.10;99.90
78904;DHT22;68291;49.602;8.722;2023-05-10T03:28:42;16.10;99.90
78904;DHT22;68291;49.602;8.722;2023-05-10T03:31:51;16.00;99.90
78904;DHT22;68291;49.602;8.722;2023-05-10T03:35:07;16.00;99.90
78904;DHT22;68291;49.602;8.722;2023-05-10T03:38:16;16.00;99.90
78904;DHT22;68291;49.602;8.722;2023-05-10T03:41:20;16.00;99.90
78904;DHT22;68291;49.602;8.722;2023-05-10T03:44:18;16.00;99.90
78904;DHT22;68291;49.602;8.722;2023-05-10T03:47:26;16.00;99.90
78904;DHT22;68291;49.602;8.722;2023-05-10T03:50:19;16.00;99.90
78904;DHT22;68291;49.602;8.722;2023-05-10T03:53:48;16.00;99.90
78904;DHT22;68291;49.602;8.722;2023-05-10T03:56:39;16.00;99.90
78904;DHT22;68291;49.602;8.722;2023-05-10T03:59:29;16.00;99.90
78904;DHT22;68291;49.602;8.722;2023-05-10T04:02:43;16.00;99.90
78904;DHT22;68291;49.602;8.722;2023-05-10T04:05:38;16.00;99.90
78904;DHT22;68291;49.602;8.722;2023-05-10T04:08:50;16.00;99.90
78904;DHT22;68291;49.602;8.722;2023-05-10T04:11:50;16.00;99.90
78904;DHT22;68291;49.602;8.722;2023-05-10T04:14:59;16.00;99.90
78904;DHT22;68291;49.602;8.722;2023-05-10T04:18:07;16.00;99.90
78904;DHT22;68291;49.602;8.722;2023-05-10T04:21:02;16.00;99.90
78904;DHT22;68291;49.602;8.722;2023-05-10T04:24:07;16.00;99.90
78904;DHT22;68291;49.602;8.722;2023-05-10T04:27:05;15.90;99.90
78904;DHT22;68291;49.602;8.722;2023-05-10T04:30:17;15.90;99.90
78904;DHT22;68291;49.602;8.722;2023-05-10T04:33:30;15.90;99.90
78904;DHT22;68291;49.602;8.722;2023-05-10T04:36:27;15.90;99.90
78904;DHT22;68291;49.602;8.722;2023-05-10T04:39:49;15.90;99.90
78904;DHT22;68291;49.602;8.722;2023-05-10T04:42:46;15.80;99.90
78904;DHT22;68291;49.602;8.722;2023-05-10T04:45:56;15.80;99.90
78904;DHT22;68291;49.602;8.722;2023-05-10T04:48:49;15.80;99.90
78904;DHT22;68291;49.602;8.722;2023-05-10T04:51:39;15.80;99.90
78904;DHT22;68291;49.602;8.722;2023-05-10T04:54:54;15.80;99.90
78904;DHT22;68291;49.602;8.722;2023-05-10T04:57:51;15.80;99.90
78904;DHT22;68291;49.602;8.722;2023-05-10T05:01:05;15.80;99.90
78904;DHT22;68291;49.602;8.722;2023-05-10T05:03:57;15.80;99.90
78904;DHT22;68291;49.602;8.722;2023-05-10T05:07:04;15.80;99.90
78904;DHT22;68291;49.602;8.722;2023-05-10T05:10:09;15.90;99.90
78904;DHT22;68291;49.602;8.722;2023-05-10T05:13:02;15.90;99.90
78904;DHT22;68291;49.602;8.722;2023-05-10T05:16:10;15.90;99.90
78904;DHT22;68291;49.602;8.722;2023-05-10T05:19:08;15.90;99.90
78904;DHT22;68291;49.602;8.722;2023-05-10T05:22:00;15.90;99.90
78904;DHT22;68291;49.602;8.722;2023-05-10T05:25:07;15.90;99.90
78904;DHT22;68291;49.602;8.722;2023-05-10T05:28:02;15.90;99.90
78904;DHT22;68291;49.602;8.722;2023-05-10T05:31:09;15.90;99.90
78904;DHT22;68291;49.602;8.722;2023-05-10T05:34:07;16.00;99.90
78904;DHT22;68291;49.602;8.722;2023-05-10T05:36:58;16.00;99.90
78904;DHT22;68291;49.602;8.722;2023-05-10T05:39:47;16.00;99.90
78904;DHT22;68291;49.602;8.722;2023-05-10T05:43:09;16.10;99.90
78904;DHT22;68291;49.602;8.722;2023-05-10T05:46:03;16.10;99.90
78904;DHT22;68291;49.602;8.722;2023-05-10T05:49:02;16.10;99.90
78904;DHT22;68291;49.602;8.722;2023-05-10T05:51:54;16.10;99.90
78904;DHT22;68291;49.602;8.722;2023-05-10T05:54:52;16.10;99.90
78904;DHT22;68291;49.602;8.722;2023-05-10T05:57:50;16.10;99.90
78904;DHT22;68291;49.602;8.722;2023-05-10T06:01:03;16.10;99.90
78904;DHT22;68291;49.602;8.722;2023-05-10T06:04:02;16.20;99.90
78904;DHT22;68291;49.602;8.722;2023-05-10T06:07:13;16.20;99.90
78904;DHT22;68291;49.602;8.722;2023-05-10T06:10:06;16.20;99.90
78904;DHT22;68291;49.602;8.722;2023-05-10T06:12:56;16.30;99.90
78904;DHT22;68291;49.602;8.722;2023-05-10T06:16:18;16.30;99.90
78904;DHT22;68291;49.602;8.722;2023-05-10T06:19:17;16.40;99.90
78904;DHT22;68291;49.602;8.722;2023-05-10T06:22:36;16.40;99.90
78904;DHT22;68291;49.602;8.722;2023-05-10T06:25:41;16.40;99.90
78904;DHT22;68291;49.602;8.722;2023-05-10T06:28:32;16.50;99.90
78904;DHT22;68291;49.602;8.722;2023-05-10T06:31:25;16.50;99.90
78904;DHT22;68291;49.602;8.722;2023-05-10T06:34:39;16.50;99.90
78904;DHT22;68291;49.602;8.722;2023-05-10T06:37:37;16.50;99.90
78904;DHT22;68291;49.602;8.722;2023-05-10T06:40:26;16.50;99.90
78904;DHT22;68291;49.602;8.722;2023-05-10T06:43:24;16.60;99.90
78904;DHT22;68291;49.602;8.722;2023-05-10T06:46:27;16.60;99.90
78904;DHT22;68291;49.602;8.722;2023-05-10T06:49:22;16.70;99.90
78904;DHT22;68291;49.602;8.722;2023-05-10T06:52:20;16.80;99.90
78904;DHT22;68291;49.602;8.722;2023-05-10T06:55:12;16.80;99.90
78904;DHT22;68291;49.602;8.722;2023-05-10T06:58:04;16.90;99.90
78904;DHT22;68291;49.602;8.722;2023-05-10T07:01:15;17.00;99.90
78904;DHT22;68291;49.602;8.722;2023-05-10T07:04:11;17.00;99.90
78904;DHT22;68291;49.602;8.722;2023-05-10T07:07:13;17.10;99.90
78904;DHT22;68291;49.602;8.722;2023-05-10T07:10:14;17.20;99.90
78904;DHT22;68291;49.602;8.722;2023-05-10T07:13:17;17.30;99.90
78904;DHT22;68291;49.602;8.722;2023-05-10T07:16:07;17.40;99.90
78904;DHT22;68291;49.602;8.722;2023-05-10T07:19:14;17.50;99.90
78904;DHT22;68291;49.602;8.722;2023-05-10T07:22:03;17.50;99.90
78904;DHT22;68291;49.602;8.722;2023-05-10T07:25:02;17.60;99.90
78904;DHT22;68291;49.602;8.722;2023-05-10T07:27:54;17.60;99.90
78904;DHT22;68291;49.602;8.722;2023-05-10T07:30:46;17.60;99.90
78904;DHT22;68291;49.602;8.722;2023-05-10T07:33:35;17.60;99.90
78904;DHT22;68291;49.602;8.722;2023-05-10T07:36:33;17.60;99.90
78904;DHT22;68291;49.602;8.722;2023-05-10T07:39:30;17.60;99.90
78904;DHT22;68291;49.602;8.722;2023-05-10T07:42:28;17.60;99.90
78904;DHT22;68291;49.602;8.722;2023-05-10T07:45:19;17.60;99.90
78904;DHT22;68291;49.602;8.722;2023-05-10T07:48:09;17.70;99.90
78904;DHT22;68291;49.602;8.722;2023-05-10T07:51:13;17.70;99.90
78904;DHT22;68291;49.602;8.722;2023-05-10T07:54:07;17.80;99.90
78904;DHT22;68291;49.602;8.722;2023-05-10T07:57:02;17.90;99.90
78904;DHT22;68291;49.602;8.722;2023-05-10T08:00:00;18.00;99.90
78904;DHT22;68291;49.602;8.722;2023-05-10T08:02:57;18.10;99.90
78904;DHT22;68291;49.602;8.722;2023-05-10T08:05:49;18.20;99.90
78904;DHT22;68291;49.602;8.722;2023-05-10T08:08:53;18.30;99.90
78904;DHT22;68291;49.602;8.722;2023-05-10T08:11:54;18.30;99.90
78904;DHT22;68291;49.602;8.722;2023-05-10T08:14:45;18.40;99.90
78904;DHT22;68291;49.602;8.722;2023-05-10T08:17:43;18.50;99.90
78904;DHT22;68291;49.602;8.722;2023-05-10T08:20:33;18.50;99.90
78904;DHT22;68291;49.602;8.722;2023-05-10T08:23:41;18.60;99.90
78904;DHT22;68291;49.602;8.722;2023-05-10T08:27:08;18.60;99.90
78904;DHT22;68291;49.602;8.722;2023-05-10T08:30:10;18.60;99.90
78904;DHT22;68291;49.602;8.722;2023-05-10T08:33:06;18.60;99.90
78904;DHT22;68291;49.602;8.722;2023-05-10T08:35:55;18.60;99.90
78904;DHT22;68291;49.602;8.722;2023-05-10T08:38:53;18.70;99.90
78904;DHT22;68291;49.602;8.722;2023-05-10T08:41:44;18.70;99.90
78904;DHT22;68291;49.602;8.722;2023-05-10T08:47:36;18.80;99.90
78904;DHT22;68291;49.602;8.722;2023-05-10T08:50:31;18.80;99.90
78904;DHT22;68291;49.602;8.722;2023-05-10T08:53:32;19.00;99.90
78904;DHT22;68291;49.602;8.722;2023-05-10T08:56:28;19.00;99.90
78904;DHT22;68291;49.602;8.722;2023-05-10T08:59:26;19.10;99.90
78904;DHT22;68291;49.602;8.722;2023-05-10T09:02:50;19.20;99.90
78904;DHT22;68291;49.602;8.722;2023-05-10T09:05:43;19.20;99.90
78904;DHT22;68291;49.602;8.722;2023-05-10T09:08:46;19.30;99.90
78904;DHT22;68291;49.602;8.722;2023-05-10T09:11:37;19.40;99.90
78904;DHT22;68291;49.602;8.722;2023-05-10T09:14:35;19.40;99.90
78904;DHT22;68291;49.602;8.722;2023-05-10T09:17:34;19.40;99.90
78904;DHT22;68291;49.602;8.722;2023-05-10T09:20:46;19.50;99.90
78904;DHT22;68291;49.602;8.722;2023-05-10T09:23:49;19.60;99.90
78904;DHT22;68291;49.602;8.722;2023-05-10T09:26:48;19.70;99.90
78904;DHT22;68291;49.602;8.722;2023-05-10T09:29:55;19.80;99.90
78904;DHT22;68291;49.602;8.722;2023-05-10T09:32:46;19.90;99.90
78904;DHT22;68291;49.602;8.722;2023-05-10T09:36:07;19.90;99.90
78904;DHT22;68291;49.602;8.722;2023-05-10T09:38:58;19.90;99.90
78904;DHT22;68291;49.602;8.722;2023-05-10T09:41:59;19.80;99.90
78904;DHT22;68291;49.602;8.722;2023-05-10T09:45:03;19.70;99.90
78904;DHT22;68291;49.602;8.722;2023-05-10T09:48:00;19.40;99.90
78904;DHT22;68291;49.602;8.722;2023-05-10T09:50:59;19.10;99.90
78904;DHT22;68291;49.602;8.722;2023-05-10T09:54:09;18.80;99.90
78904;DHT22;68291;49.602;8.722;2023-05-10T09:57:19;18.50;99.90
78904;DHT22;68291;49.602;8.722;2023-05-10T10:00:09;18.30;99.90
78904;DHT22;68291;49.602;8.722;2023-05-10T10:03:14;18.10;99.90
78904;DHT22;68291;49.602;8.722;2023-05-10T10:06:26;17.90;99.90
78904;DHT22;68291;49.602;8.722;2023-05-10T10:09:35;17.90;99.90
78904;DHT22;68291;49.602;8.722;2023-05-10T10:12:32;17.90;99.90
78904;DHT22;68291;49.602;8.722;2023-05-10T10:15:47;18.00;99.90
78904;DHT22;68291;49.602;8.722;2023-05-10T10:18:46;18.10;99.90
78904;DHT22;68291;49.602;8.722;2023-05-10T10:21:41;18.30;99.90
78904;DHT22;68291;49.602;8.722;2023-05-10T10:24:36;18.50;99.90
78904;DHT22;68291;49.602;8.722;2023-05-10T10:27:47;18.70;99.90
78904;DHT22;68291;49.602;8.722;2023-05-10T10:30:51;18.80;99.90
78904;DHT22;68291;49.602;8.722;2023-05-10T10:33:57;18.90;99.90
78904;DHT22;68291;49.602;8.722;2023-05-10T10:37:43;18.80;99.90
78904;DHT22;68291;49.602;8.722;2023-05-10T10:41:02;18.80;99.90
78904;DHT22;68291;49.602;8.722;2023-05-10T10:44:24;18.70;99.90
78904;DHT22;68291;49.602;8.722;2023-05-10T10:47:23;18.60;99.90
78904;DHT22;68291;49.602;8.722;2023-05-10T10:50:44;18.40;99.90
78904;DHT22;68291;49.602;8.722;2023-05-10T10:53:50;18.30;99.90
78904;DHT22;68291;49.602;8.722;2023-05-10T10:56:44;18.20;99.90
78904;DHT22;68291;49.602;8.722;2023-05-10T11:00:27;18.10;99.90
78904;DHT22;68291;49.602;8.722;2023-05-10T11:03:21;18.10;99.90
78904;DHT22;68291;49.602;8.722;2023-05-10T11:06:29;18.10;99.90
78904;DHT22;68291;49.602;8.722;2023-05-10T11:09:39;18.20;99.90
78904;DHT22;68291;49.602;8.722;2023-05-10T11:12:59;18.40;99.90
78904;DHT22;68291;49.602;8.722;2023-05-10T11:15:52;18.70;99.90
78904;DHT22;68291;49.602;8.722;2023-05-10T11:18:54;18.90;99.90
78904;DHT22;68291;49.602;8.722;2023-05-10T11:22:14;19.10;99.90
78904;DHT22;68291;49.602;8.722;2023-05-10T11:25:34;19.20;99.90
78904;DHT22;68291;49.602;8.722;2023-05-10T11:28:30;19.30;99.90
78904;DHT22;68291;49.602;8.722;2023-05-10T11:31:42;19.40;99.90
78904;DHT22;68291;49.602;8.722;2023-05-10T11:34:34;19.50;99.90
78904;DHT22;68291;49.602;8.722;2023-05-10T11:37:29;19.60;99.90
78904;DHT22;68291;49.602;8.722;2023-05-10T11:40:31;19.70;99.90
78904;DHT22;68291;49.602;8.722;2023-05-10T11:43:32;19.90;99.90
78904;DHT22;68291;49.602;8.722;2023-05-10T11:46:28;20.10;99.90
78904;DHT22;68291;49.602;8.722;2023-05-10T11:49:21;20.40;99.90
78904;DHT22;68291;49.602;8.722;2023-05-10T11:52:19;20.60;99.90
78904;DHT22;68291;49.602;8.722;2023-05-10T11:55:21;20.80;99.90
78904;DHT22;68291;49.602;8.722;2023-05-10T11:58:18;20.90;99.90
78904;DHT22;68291;49.602;8.722;2023-05-10T12:01:17;20.90;99.90
78904;DHT22;68291;49.602;8.722;2023-05-10T12:04:15;20.90;99.90
78904;DHT22;68291;49.602;8.722;2023-05-10T12:07:14;20.80;99.90
78904;DHT22;68291;49.602;8.722;2023-05-10T12:10:13;20.60;99.90
78904;DHT22;68291;49.602;8.722;2023-05-10T12:13:23;20.50;99.90
78904;DHT22;68291;49.602;8.722;2023-05-10T12:16:19;20.30;99.90
78904;DHT22;68291;49.602;8.722;2023-05-10T12:19:19;20.10;99.90
78904;DHT22;68291;49.602;8.722;2023-05-10T12:22:21;19.90;99.90
78904;DHT22;68291;49.602;8.722;2023-05-10T12:25:14;19.80;99.90
78904;DHT22;68291;49.602;8.722;2023-05-10T12:28:12;19.80;99.90
78904;DHT22;68291;49.602;8.722;2023-05-10T12:31:19;19.90;99.90
78904;DHT22;68291;49.602;8.722;2023-05-10T12:34:33;20.20;99.90
78904;DHT22;68291;49.602;8.722;2023-05-10T12:37:28;20.50;99.90
78904;DHT22;68291;49.602;8.722;2023-05-10T12:40:29;20.70;99.90
78904;DHT22;68291;49.602;8.722;2023-05-10T12:43:17;20.80;99.90
78904;DHT22;68291;49.602;8.722;2023-05-10T12:46:17;20.80;99.90
78904;DHT22;68291;49.602;8.722;2023-05-10T12:49:23;20.80;99.90
78904;DHT22;68291;49.602;8.722;2023-05-10T12:52:21;20.80;99.90
78904;DHT22;68291;49.602;8.722;2023-05-10T12:55:11;20.90;99.90
78904;DHT22;68291;49.602;8.722;2023-05-10T12:58:19;20.90;99.90
78904;DHT22;68291;49.602;8.722;2023-05-10T13:01:36;20.90;99.90
78904;DHT22;68291;49.602;8.722;2023-05-10T13:04:25;20.80;99.90
78904;DHT22;68291;49.602;8.722;2023-05-10T13:07:23;20.60;99.90
78904;DHT22;68291;49.602;8.722;2023-05-10T13:10:22;20.50;99.90
78904;DHT22;68291;49.602;8.722;2023-05-10T13:13:11;20.40;99.90
78904;DHT22;68291;49.602;8.722;2023-05-10T13:16:41;20.30;99.90
78904;DHT22;68291;49.602;8.722;2023-05-10T13:19:31;20.20;99.90
78904;DHT22;68291;49.602;8.722;2023-05-10T13:22:36;20.20;99.90
78904;DHT22;68291;49.602;8.722;2023-05-10T13:25:26;20.40;99.90
78904;DHT22;68291;49.602;8.722;2023-05-10T13:28:21;20.60;99.90
78904;DHT22;68291;49.602;8.722;2023-05-10T13:31:25;20.90;99.90
78904;DHT22;68291;49.602;8.722;2023-05-10T13:34:31;21.20;99.90
78904;DHT22;68291;49.602;8.722;2023-05-10T13:37:22;21.40;99.90
78904;DHT22;68291;49.602;8.722;2023-05-10T13:40:20;21.50;99.90
78904;DHT22;68291;49.602;8.722;2023-05-10T13:43:18;21.50;99.90
78904;DHT22;68291;49.602;8.722;2023-05-10T13:46:13;21.60;99.90
78904;DHT22;68291;49.602;8.722;2023-05-10T13:49:26;21.70;99.90
78904;DHT22;68291;49.602;8.722;2023-05-10T13:52:18;21.80;99.90
78904;DHT22;68291;49.602;8.722;2023-05-10T13:55:17;21.80;99.90
78904;DHT22;68291;49.602;8.722;2023-05-10T13:58:15;21.70;99.90
78904;DHT22;68291;49.602;8.722;2023-05-10T14:01:04;21.70;99.90
78904;DHT22;68291;49.602;8.722;2023-05-10T14:03:57;21.60;99.90
78904;DHT22;68291;49.602;8.722;2023-05-10T14:06:58;21.70;99.90
78904;DHT22;68291;49.602;8.722;2023-05-10T14:09:46;21.80;99.90
78904;DHT22;68291;49.602;8.722;2023-05-10T14:12:36;22.00;99.90
78904;DHT22;68291;49.602;8.722;2023-05-10T14:15:27;22.20;99.90
78904;DHT22;68291;49.602;8.722;2023-05-10T14:18:19;22.20;99.90
78904;DHT22;68291;49.602;8.722;2023-05-10T14:21:09;22.30;99.90
78904;DHT22;68291;49.602;8.722;2023-05-10T14:24:02;22.30;99.90
78904;DHT22;68291;49.602;8.722;2023-05-10T14:26:55;22.30;99.90
78904;DHT22;68291;49.602;8.722;2023-05-10T14:29:46;22.20;99.90
78904;DHT22;68291;49.602;8.722;2023-05-10T14:32:45;22.20;99.90
78904;DHT22;68291;49.602;8.722;2023-05-10T14:35:39;22.10;99.90
78904;DHT22;68291;49.602;8.722;2023-05-10T14:38:37;22.00;99.90
78904;DHT22;68291;49.602;8.722;2023-05-10T14:41:30;22.00;99.90
78904;DHT22;68291;49.602;8.722;2023-05-10T14:44:20;22.00;99.90
78904;DHT22;68291;49.602;8.722;2023-05-10T14:47:12;21.90;99.90
78904;DHT22;68291;49.602;8.722;2023-05-10T14:50:09;21.90;99.90
78904;DHT22;68291;49.602;8.722;2023-05-10T14:53:23;21.80;99.90
78904;DHT22;68291;49.602;8.722;2023-05-10T14:56:13;21.90;99.90
78904;DHT22;68291;49.602;8.722;2023-05-10T14:59:03;22.00;99.90
78904;DHT22;68291;49.602;8.722;2023-05-10T15:01:58;22.10;99.90
78904;DHT22;68291;49.602;8.722;2023-05-10T15:04:50;22.30;99.90
78904;DHT22;68291;49.602;8.722;2023-05-10T15:07:48;22.40;99.90
78904;DHT22;68291;49.602;8.722;2023-05-10T15:10:50;22.50;99.90
78904;DHT22;68291;49.602;8.722;2023-05-10T15:13:44;22.60;99.90
78904;DHT22;68291;49.602;8.722;2023-05-10T15:16:46;22.50;99.90
78904;DHT22;68291;49.602;8.722;2023-05-10T15:19:36;22.40;99.90
78904;DHT22;68291;49.602;8.722;2023-05-10T15:22:30;22.40;99.90
78904;DHT22;68291;49.602;8.722;2023-05-10T15:25:30;22.40;99.90
78904;DHT22;68291;49.602;8.722;2023-05-10T15:28:29;22.30;99.90
78904;DHT22;68291;49.602;8.722;2023-05-10T15:31:25;22.30;99.90
78904;DHT22;68291;49.602;8.722;2023-05-10T15:34:31;22.20;99.90
78904;DHT22;68291;49.602;8.722;2023-05-10T15:37:28;22.10;99.90
78904;DHT22;68291;49.602;8.722;2023-05-10T15:40:26;22.10;99.90
78904;DHT22;68291;49.602;8.722;2023-05-10T15:43:15;22.10;99.90
78904;DHT22;68291;49.602;8.722;2023-05-10T15:46:10;22.10;99.90
78904;DHT22;68291;49.602;8.722;2023-05-10T15:49:08;22.10;99.90
78904;DHT22;68291;49.602;8.722;2023-05-10T15:52:06;22.10;99.90
78904;DHT22;68291;49.602;8.722;2023-05-10T15:54:57;22.10;99.90
78904;DHT22;68291;49.602;8.722;2023-05-10T15:57:48;22.10;99.90
78904;DHT22;68291;49.602;8.722;2023-05-10T16:00:42;22.10;99.90
78904;DHT22;68291;49.602;8.722;2023-05-10T16:03:34;22.20;99.90
78904;DHT22;68291;49.602;8.722;2023-05-10T16:06:28;22.40;99.90
78904;DHT22;68291;49.602;8.722;2023-05-10T16:09:28;22.50;99.90
78904;DHT22;68291;49.602;8.722;2023-05-10T16:12:16;22.80;99.90
78904;DHT22;68291;49.602;8.722;2023-05-10T16:15:24;23.20;99.90
78904;DHT22;68291;49.602;8.722;2023-05-10T16:18:22;23.50;99.90
78904;DHT22;68291;49.602;8.722;2023-05-10T16:21:12;23.80;99.90
78904;DHT22;68291;49.602;8.722;2023-05-10T16:24:10;24.00;99.90
78904;DHT22;68291;49.602;8.722;2023-05-10T16:27:15;24.20;99.90
78904;DHT22;68291;49.602;8.722;2023-05-10T16:30:19;24.30;99.90
78904;DHT22;68291;49.602;8.722;2023-05-10T16:33:18;24.40;99.90
78904;DHT22;68291;49.602;8.722;2023-05-10T16:36:16;24.40;99.90
78904;DHT22;68291;49.602;8.722;2023-05-10T16:39:14;24.50;99.90
78904;DHT22;68291;49.602;8.722;2023-05-10T16:42:27;24.60;99.90
78904;DHT22;68291;49.602;8.722;2023-05-10T16:45:31;24.60;99.90
78904;DHT22;68291;49.602;8.722;2023-05-10T16:48:31;24.60;99.90
78904;DHT22;68291;49.602;8.722;2023-05-10T16:51:27;24.60;99.90
78904;DHT22;68291;49.602;8.722;2023-05-10T16:54:21;24.50;99.90
78904;DHT22;68291;49.602;8.722;2023-05-10T16:57:34;24.30;99.90
78904;DHT22;68291;49.602;8.722;2023-05-10T17:00:24;24.00;99.90
78904;DHT22;68291;49.602;8.722;2023-05-10T17:03:24;23.80;99.90
78904;DHT22;68291;49.602;8.722;2023-05-10T17:06:15;23.70;99.90
78904;DHT22;68291;49.602;8.722;2023-05-10T17:09:26;23.60;99.90
78904;DHT22;68291;49.602;8.722;2023-05-10T17:12:45;23.60;99.90
78904;DHT22;68291;49.602;8.722;2023-05-10T17:15:45;23.70;99.90
78904;DHT22;68291;49.602;8.722;2023-05-10T17:18:40;23.70;99.90
78904;DHT22;68291;49.602;8.722;2023-05-10T17:21:37;23.60;99.90
78904;DHT22;68291;49.602;8.722;2023-05-10T17:24:28;23.50;99.90
78904;DHT22;68291;49.602;8.722;2023-05-10T17:27:27;23.40;99.90
78904;DHT22;68291;49.602;8.722;2023-05-10T17:30:46;23.20;99.90
78904;DHT22;68291;49.602;8.722;2023-05-10T17:33:44;23.00;99.90
78904;DHT22;68291;49.602;8.722;2023-05-10T17:36:58;22.80;99.90
78904;DHT22;68291;49.602;8.722;2023-05-10T17:39:58;22.50;99.90
78904;DHT22;68291;49.602;8.722;2023-05-10T17:42:55;22.20;99.90
78904;DHT22;68291;49.602;8.722;2023-05-10T17:46:06;21.80;99.90
78904;DHT22;68291;49.602;8.722;2023-05-10T17:49:02;21.50;99.90
78904;DHT22;68291;49.602;8.722;2023-05-10T17:52:17;21.20;99.90
78904;DHT22;68291;49.602;8.722;2023-05-10T17:55:32;20.90;99.90
78904;DHT22;68291;49.602;8.722;2023-05-10T17:58:45;20.60;99.90
78904;DHT22;68291;49.602;8.722;2023-05-10T18:01:51;20.30;99.90
78904;DHT22;68291;49.602;8.722;2023-05-10T18:04:41;20.00;99.90
78904;DHT22;68291;49.602;8.722;2023-05-10T18:07:31;19.70;99.90
78904;DHT22;68291;49.602;8.722;2023-05-10T18:10:28;19.50;99.90
78904;DHT22;68291;49.602;8.722;2023-05-10T18:13:30;19.40;99.90
78904;DHT22;68291;49.602;8.722;2023-05-10T18:16:28;19.20;99.90
78904;DHT22;68291;49.602;8.722;2023-05-10T18:19:27;19.20;99.90
78904;DHT22;68291;49.602;8.722;2023-05-10T18:22:35;19.00;99.90
78904;DHT22;68291;49.602;8.722;2023-05-10T18:25:36;18.80;99.90
78904;DHT22;68291;49.602;8.722;2023-05-10T18:28:35;18.70;99.90
78904;DHT22;68291;49.602;8.722;2023-05-10T18:31:33;18.60;99.90
78904;DHT22;68291;49.602;8.722;2023-05-10T18:34:46;18.60;99.90
78904;DHT22;68291;49.602;8.722;2023-05-10T18:37:50;18.50;99.90
78904;DHT22;68291;49.602;8.722;2023-05-10T18:40:57;18.50;99.90
78904;DHT22;68291;49.602;8.722;2023-05-10T18:44:03;18.40;99.90
78904;DHT22;68291;49.602;8.722;2023-05-10T18:46:57;18.30;99.90
78904;DHT22;68291;49.602;8.722;2023-05-10T18:50:02;18.30;99.90
78904;DHT22;68291;49.602;8.722;2023-05-10T18:53:00;18.20;99.90
78904;DHT22;68291;49.602;8.722;2023-05-10T18:55:58;18.20;99.90
78904;DHT22;68291;49.602;8.722;2023-05-10T18:58:47;18.10;99.90
78904;DHT22;68291;49.602;8.722;2023-05-10T19:01:37;18.10;99.90
78904;DHT22;68291;49.602;8.722;2023-05-10T19:04:34;18.00;99.90
78904;DHT22;68291;49.602;8.722;2023-05-10T19:08:03;17.90;99.90
78904;DHT22;68291;49.602;8.722;2023-05-10T19:10:52;17.80;99.90